sensor_id;sensor_type;location;lat;lon;timestamp;P1;durP1;ratioP1;P2;durP2;ratioP2
2784;SDS011;57944;48.722;9.316;2022-08-01T00:02:17;9.90;;;3.40;;
2784;SDS011;57944;48.722;9.316;2022-08-01T00:04:48;3.90;;;3.13;;
2784;SDS011;57944;48.722;9.316;2022-08-01T00:07:18;5.53;;;3.00;;
2784;SDS011;57944;48.722;9.316;2022-08-01T00:09:48;6.03;;;3.40;;
2784;SDS011;57944;48.722;9.316;2022-08-01T00:12:18;4.60;;;3.23;;
2784;SDS011;57944;48.722;9.316;2022-08-01T00:14:48;4.90;;;3.53;;
2784;SDS011;57944;48.722;9.316;2022-08-01T00:17:21;5.57;;;3.17;;
2784;SDS011;57944;48.722;9.316;2022-08-01T00:19:51;8.20;;;3.90;;
2784;SDS011;57944;48.722;9.316;2022-08-01T00:22:21;5.50;;;3.70;;
2784;SDS011;57944;48.722;9.316;2022-08-01T00:24:51;6.17;;;2.73;;
2784;SDS011;57944;48.722;9.316;2022-08-01T00:27:21;4.77;;;3.27;;
2784;SDS011;57944;48.722;9.316;2022-08-01T00:29:53;5.47;;;3.87;;
2784;SDS011;57944;48.722;9.316;2022-08-01T00:32:42;4.97;;;3.40;;
2784;SDS011;57944;48.722;9.316;2022-08-01T00:35:12;5.10;;;3.27;;
2784;SDS011;57944;48.722;9.316;2022-08-01T00:37:42;4.60;;;3.60;;
2784;SDS011;57944;48.722;9.316;2022-08-01T00:40:12;5.40;;;3.47;;
2784;SDS011;57944;48.722;9.316;2022-08-01T00:42:43;4.53;;;3.57;;
2784;SDS011;57944;48.722;9.316;2022-08-01T00:45:13;6.87;;;3.60;;
2784;SDS011;57944;48.722;9.316;2022-08-01T00:47:45;4.30;;;3.20;;
2784;SDS011;57944;48.722;9.316;2022-08-01T00:50:20;4.60;;;3.17;;
2784;SDS011;57944;48.722;9.316;2022-08-01T00:52:52;7.70;;;4.47;;
2784;SDS011;57944;48.722;9.316;2022-08-01T00:55:24;6.60;;;3.80;;
2784;SDS011;57944;48.722;9.316;2022-08-01T00:57:55;6.83;;;3.50;;
2784;SDS011;57944;48.722;9.316;2022-08-01T01:00:32;6.33;;;4.07;;
2784;SDS011;57944;48.722;9.316;2022-08-01T01:03:22;7.40;;;3.87;;
2784;SDS011;57944;48.722;9.316;2022-08-01T01:06:16;6.20;;;4.10;;
2784;SDS011;57944;48.722;9.316;2022-08-01T01:08:59;8.43;;;3.90;;
2784;SDS011;57944;48.722;9.316;2022-08-01T01:11:45;9.27;;;3.20;;
2784;SDS011;57944;48.722;9.316;2022-08-01T01:14:31;5.50;;;4.13;;
2784;SDS011;57944;48.722;9.316;2022-08-01T01:17:14;6.60;;;3.80;;
2784;SDS011;57944;48.722;9.316;2022-08-01T01:20:13;6.13;;;4.00;;
2784;SDS011;57944;48.722;9.316;2022-08-01T01:22:50;9.03;;;4.00;;
2784;SDS011;57944;48.722;9.316;2022-08-01T01:25:40;6.00;;;3.80;;
2784;SDS011;57944;48.722;9.316;2022-08-01T01:28:34;7.93;;;3.83;;
2784;SDS011;57944;48.722;9.316;2022-08-01T01:31:24;5.87;;;3.50;;
2784;SDS011;57944;48.722;9.316;2022-08-01T01:33:56;6.10;;;3.90;;
2784;SDS011;57944;48.722;9.316;2022-08-01T01:36:31;4.83;;;3.70;;
2784;SDS011;57944;48.722;9.316;2022-08-01T01:39:04;6.63;;;4.37;;
2784;SDS011;57944;48.722;9.316;2022-08-01T01:41:36;5.83;;;3.90;;
2784;SDS011;57944;48.722;9.316;2022-08-01T01:44:10;6.10;;;4.10;;
2784;SDS011;57944;48.722;9.316;2022-08-01T01:46:42;6.77;;;4.00;;
2784;SDS011;57944;48.722;9.316;2022-08-01T01:49:13;6.73;;;4.40;;
2784;SDS011;57944;48.722;9.316;2022-08-01T01:51:46;4.73;;;3.63;;
2784;SDS011;57944;48.722;9.316;2022-08-01T01:54:28;6.10;;;4.57;;
2784;SDS011;57944;48.722;9.316;2022-08-01T01:57:03;5.17;;;3.70;;
2784;SDS011;57944;48.722;9.316;2022-08-01T01:59:39;5.33;;;3.70;;
2784;SDS011;57944;48.722;9.316;2022-08-01T02:02:12;5.97;;;4.13;;
2784;SDS011;57944;48.722;9.316;2022-08-01T02:04:46;4.80;;;3.57;;
2784;SDS011;57944;48.722;9.316;2022-08-01T02:07:18;7.43;;;4.53;;
2784;SDS011;57944;48.722;9.316;2022-08-01T02:09:51;5.53;;;4.20;;
2784;SDS011;57944;48.722;9.316;2022-08-01T02:12:24;8.07;;;4.10;;
2784;SDS011;57944;48.722;9.316;2022-08-01T02:14:58;5.23;;;4.20;;
2784;SDS011;57944;48.722;9.316;2022-08-01T02:17:31;8.30;;;4.67;;
2784;SDS011;57944;48.722;9.316;2022-08-01T02:20:09;5.73;;;4.20;;
2784;SDS011;57944;48.722;9.316;2022-08-01T02:22:42;4.80;;;3.40;;
2784;SDS011;57944;48.722;9.316;2022-08-01T02:25:19;5.43;;;3.77;;
2784;SDS011;57944;48.722;9.316;2022-08-01T02:27:56;5.70;;;3.50;;
2784;SDS011;57944;48.722;9.316;2022-08-01T02:30:35;8.27;;;3.97;;
2784;SDS011;57944;48.722;9.316;2022-08-01T02:33:12;8.20;;;4.70;;
2784;SDS011;57944;48.722;9.316;2022-08-01T02:35:49;5.23;;;3.60;;
2784;SDS011;57944;48.722;9.316;2022-08-01T02:38:43;6.97;;;5.40;;
2784;SDS011;57944;48.722;9.316;2022-08-01T02:41:16;9.03;;;4.43;;
2784;SDS011;57944;48.722;9.316;2022-08-01T02:43:52;6.77;;;4.93;;
2784;SDS011;57944;48.722;9.316;2022-08-01T02:46:34;5.60;;;4.00;;
2784;SDS011;57944;48.722;9.316;2022-08-01T02:49:09;4.70;;;3.90;;
2784;SDS011;57944;48.722;9.316;2022-08-01T02:51:42;5.53;;;4.27;;
2784;SDS011;57944;48.722;9.316;2022-08-01T02:54:15;5.97;;;4.47;;
2784;SDS011;57944;48.722;9.316;2022-08-01T02:56:50;10.83;;;4.17;;
2784;SDS011;57944;48.722;9.316;2022-08-01T02:59:23;5.90;;;4.57;;
2784;SDS011;57944;48.722;9.316;2022-08-01T03:02:00;7.40;;;4.67;;
2784;SDS011;57944;48.722;9.316;2022-08-01T03:04:35;6.30;;;4.60;;
2784;SDS011;57944;48.722;9.316;2022-08-01T03:07:12;5.20;;;4.00;;
2784;SDS011;57944;48.722;9.316;2022-08-01T03:09:45;6.73;;;4.73;;
2784;SDS011;57944;48.722;9.316;2022-08-01T03:12:17;5.53;;;4.00;;
2784;SDS011;57944;48.722;9.316;2022-08-01T03:14:52;6.37;;;4.43;;
2784;SDS011;57944;48.722;9.316;2022-08-01T03:17:29;7.80;;;4.93;;
2784;SDS011;57944;48.722;9.316;2022-08-01T03:20:04;6.30;;;4.97;;
2784;SDS011;57944;48.722;9.316;2022-08-01T03:22:37;8.03;;;5.47;;
2784;SDS011;57944;48.722;9.316;2022-08-01T03:25:11;15.53;;;6.43;;
2784;SDS011;57944;48.722;9.316;2022-08-01T03:27:45;6.07;;;5.23;;
2784;SDS011;57944;48.722;9.316;2022-08-01T03:30:26;10.30;;;7.27;;
2784;SDS011;57944;48.722;9.316;2022-08-01T03:32:59;7.63;;;5.10;;
2784;SDS011;57944;48.722;9.316;2022-08-01T03:35:30;6.50;;;5.10;;
2784;SDS011;57944;48.722;9.316;2022-08-01T03:38:08;7.97;;;6.30;;
2784;SDS011;57944;48.722;9.316;2022-08-01T03:40:43;7.30;;;5.30;;
2784;SDS011;57944;48.722;9.316;2022-08-01T03:43:22;6.97;;;5.57;;
2784;SDS011;57944;48.722;9.316;2022-08-01T03:46:03;8.10;;;5.90;;
2784;SDS011;57944;48.722;9.316;2022-08-01T03:48:39;7.80;;;5.70;;
2784;SDS011;57944;48.722;9.316;2022-08-01T03:51:16;9.90;;;6.13;;
2784;SDS011;57944;48.722;9.316;2022-08-01T03:53:50;9.80;;;6.03;;
2784;SDS011;57944;48.722;9.316;2022-08-01T03:56:24;8.60;;;6.00;;
2784;SDS011;57944;48.722;9.316;2022-08-01T03:58:58;12.03;;;6.03;;
2784;SDS011;57944;48.722;9.316;2022-08-01T04:01:30;7.67;;;5.00;;
2784;SDS011;57944;48.722;9.316;2022-08-01T04:04:05;8.90;;;5.57;;
2784;SDS011;57944;48.722;9.316;2022-08-01T04:06:37;7.83;;;6.10;;
2784;SDS011;57944;48.722;9.316;2022-08-01T04:09:07;12.47;;;6.10;;
2784;SDS011;57944;48.722;9.316;2022-08-01T04:11:39;10.03;;;6.90;;
2784;SDS011;57944;48.722;9.316;2022-08-01T04:14:09;8.70;;;5.13;;
2784;SDS011;57944;48.722;9.316;2022-08-01T04:16:39;7.33;;;5.23;;
2784;SDS011;57944;48.722;9.316;2022-08-01T04:19:13;9.33;;;5.90;;
2784;SDS011;57944;48.722;9.316;2022-08-01T04:21:43;7.80;;;5.80;;
2784;SDS011;57944;48.722;9.316;2022-08-01T04:24:14;7.90;;;6.47;;
2784;SDS011;57944;48.722;9.316;2022-08-01T04:26:50;10.97;;;6.40;;
2784;SDS011;57944;48.722;9.316;2022-08-01T04:29:21;11.97;;;6.57;;
2784;SDS011;57944;48.722;9.316;2022-08-01T04:31:54;8.13;;;5.90;;
2784;SDS011;57944;48.722;9.316;2022-08-01T04:34:30;13.50;;;6.50;;
2784;SDS011;57944;48.722;9.316;2022-08-01T04:37:02;9.17;;;6.33;;
2784;SDS011;57944;48.722;9.316;2022-08-01T04:39:33;7.77;;;5.47;;
2784;SDS011;57944;48.722;9.316;2022-08-01T04:42:16;11.40;;;6.13;;
2784;SDS011;57944;48.722;9.316;2022-08-01T04:44:58;8.60;;;6.20;;
2784;SDS011;57944;48.722;9.316;2022-08-01T04:47:29;9.30;;;6.40;;
2784;SDS011;57944;48.722;9.316;2022-08-01T04:50:03;11.63;;;6.40;;
2784;SDS011;57944;48.722;9.316;2022-08-01T04:52:36;8.63;;;6.97;;
2784;SDS011;57944;48.722;9.316;2022-08-01T04:55:08;11.30;;;6.30;;
2784;SDS011;57944;48.722;9.316;2022-08-01T04:57:39;9.30;;;5.70;;
2784;SDS011;57944;48.722;9.316;2022-08-01T05:00:13;11.33;;;5.97;;
2784;SDS011;57944;48.722;9.316;2022-08-01T05:02:45;13.33;;;6.63;;
2784;SDS011;57944;48.722;9.316;2022-08-01T05:05:19;8.73;;;5.17;;
2784;SDS011;57944;48.722;9.316;2022-08-01T05:07:49;6.57;;;4.63;;
2784;SDS011;57944;48.722;9.316;2022-08-01T05:10:19;7.83;;;5.20;;
2784;SDS011;57944;48.722;9.316;2022-08-01T05:12:49;9.00;;;5.30;;
2784;SDS011;57944;48.722;9.316;2022-08-01T05:15:19;8.70;;;6.17;;
2784;SDS011;57944;48.722;9.316;2022-08-01T05:17:50;11.00;;;6.33;;
2784;SDS011;57944;48.722;9.316;2022-08-01T05:20:23;7.00;;;5.60;;
2784;SDS011;57944;48.722;9.316;2022-08-01T05:22:53;11.70;;;5.87;;
2784;SDS011;57944;48.722;9.316;2022-08-01T05:25:23;6.87;;;4.87;;
2784;SDS011;57944;48.722;9.316;2022-08-01T05:28:14;19.30;;;6.40;;
2784;SDS011;57944;48.722;9.316;2022-08-01T05:30:44;8.67;;;6.07;;
2784;SDS011;57944;48.722;9.316;2022-08-01T05:33:14;8.13;;;4.77;;
2784;SDS011;57944;48.722;9.316;2022-08-01T05:35:49;8.13;;;5.23;;
2784;SDS011;57944;48.722;9.316;2022-08-01T05:38:19;8.83;;;6.17;;
2784;SDS011;57944;48.722;9.316;2022-08-01T05:40:49;9.17;;;5.93;;
2784;SDS011;57944;48.722;9.316;2022-08-01T05:43:19;13.50;;;6.83;;
2784;SDS011;57944;48.722;9.316;2022-08-01T05:45:54;11.80;;;6.47;;
2784;SDS011;57944;48.722;9.316;2022-08-01T05:48:24;11.10;;;6.17;;
2784;SDS011;57944;48.722;9.316;2022-08-01T05:50:57;12.40;;;6.10;;
2784;SDS011;57944;48.722;9.316;2022-08-01T05:53:27;8.33;;;5.50;;
2784;SDS011;57944;48.722;9.316;2022-08-01T05:56:00;8.33;;;4.40;;
2784;SDS011;57944;48.722;9.316;2022-08-01T05:58:30;7.17;;;4.63;;
2784;SDS011;57944;48.722;9.316;2022-08-01T06:01:00;12.20;;;5.53;;
2784;SDS011;57944;48.722;9.316;2022-08-01T06:03:31;6.93;;;5.07;;
2784;SDS011;57944;48.722;9.316;2022-08-01T06:06:03;18.70;;;6.83;;
2784;SDS011;57944;48.722;9.316;2022-08-01T06:08:34;11.10;;;7.00;;
2784;SDS011;57944;48.722;9.316;2022-08-01T06:11:04;9.40;;;5.77;;
2784;SDS011;57944;48.722;9.316;2022-08-01T06:13:38;6.33;;;5.27;;
2784;SDS011;57944;48.722;9.316;2022-08-01T06:16:14;9.13;;;5.03;;
2784;SDS011;57944;48.722;9.316;2022-08-01T06:18:44;12.00;;;5.10;;
2784;SDS011;57944;48.722;9.316;2022-08-01T06:21:20;7.33;;;5.20;;
2784;SDS011;57944;48.722;9.316;2022-08-01T06:23:50;10.80;;;5.43;;
2784;SDS011;57944;48.722;9.316;2022-08-01T06:26:20;7.57;;;4.60;;
2784;SDS011;57944;48.722;9.316;2022-08-01T06:28:50;8.30;;;5.37;;
2784;SDS011;57944;48.722;9.316;2022-08-01T06:31:20;5.87;;;4.87;;
2784;SDS011;57944;48.722;9.316;2022-08-01T06:33:54;5.93;;;4.80;;
2784;SDS011;57944;48.722;9.316;2022-08-01T06:36:27;6.50;;;5.07;;
2784;SDS011;57944;48.722;9.316;2022-08-01T06:38:57;8.20;;;4.80;;
2784;SDS011;57944;48.722;9.316;2022-08-01T06:41:27;6.73;;;4.83;;
2784;SDS011;57944;48.722;9.316;2022-08-01T06:43:57;6.73;;;5.20;;
2784;SDS011;57944;48.722;9.316;2022-08-01T06:46:29;6.60;;;5.40;;
2784;SDS011;57944;48.722;9.316;2022-08-01T06:49:00;7.47;;;5.23;;
2784;SDS011;57944;48.722;9.316;2022-08-01T06:51:33;5.20;;;4.47;;
2784;SDS011;57944;48.722;9.316;2022-08-01T06:54:03;6.57;;;4.63;;
2784;SDS011;57944;48.722;9.316;2022-08-01T06:56:33;8.30;;;4.50;;
2784;SDS011;57944;48.722;9.316;2022-08-01T06:59:04;8.73;;;4.43;;
2784;SDS011;57944;48.722;9.316;2022-08-01T07:01:34;6.93;;;5.47;;
2784;SDS011;57944;48.722;9.316;2022-08-01T07:04:04;6.17;;;4.57;;
2784;SDS011;57944;48.722;9.316;2022-08-01T07:06:37;5.80;;;4.17;;
2784;SDS011;57944;48.722;9.316;2022-08-01T07:09:07;10.70;;;5.50;;
2784;SDS011;57944;48.722;9.316;2022-08-01T07:11:40;7.73;;;4.10;;
2784;SDS011;57944;48.722;9.316;2022-08-01T07:14:10;5.20;;;4.70;;
2784;SDS011;57944;48.722;9.316;2022-08-01T07:16:41;7.40;;;4.50;;
2784;SDS011;57944;48.722;9.316;2022-08-01T07:19:11;8.17;;;4.53;;
2784;SDS011;57944;48.722;9.316;2022-08-01T07:21:44;8.17;;;4.47;;
2784;SDS011;57944;48.722;9.316;2022-08-01T07:24:16;7.40;;;4.40;;
2784;SDS011;57944;48.722;9.316;2022-08-01T07:26:47;7.10;;;4.10;;
2784;SDS011;57944;48.722;9.316;2022-08-01T07:29:25;4.87;;;3.80;;
2784;SDS011;57944;48.722;9.316;2022-08-01T07:31:57;6.67;;;3.90;;
2784;SDS011;57944;48.722;9.316;2022-08-01T07:34:28;6.90;;;5.07;;
2784;SDS011;57944;48.722;9.316;2022-08-01T07:37:01;4.90;;;3.63;;
2784;SDS011;57944;48.722;9.316;2022-08-01T07:39:31;5.70;;;3.80;;
2784;SDS011;57944;48.722;9.316;2022-08-01T07:42:01;7.93;;;3.63;;
2784;SDS011;57944;48.722;9.316;2022-08-01T07:44:33;5.77;;;3.73;;
2784;SDS011;57944;48.722;9.316;2022-08-01T07:47:04;6.67;;;4.13;;
2784;SDS011;57944;48.722;9.316;2022-08-01T07:49:35;5.53;;;3.67;;
2784;SDS011;57944;48.722;9.316;2022-08-01T07:52:09;5.63;;;3.77;;
2784;SDS011;57944;48.722;9.316;2022-08-01T07:54:39;7.50;;;3.03;;
2784;SDS011;57944;48.722;9.316;2022-08-01T07:57:14;4.30;;;2.90;;
2784;SDS011;57944;48.722;9.316;2022-08-01T07:59:44;4.23;;;3.63;;
2784;SDS011;57944;48.722;9.316;2022-08-01T08:02:14;5.10;;;2.80;;
2784;SDS011;57944;48.722;9.316;2022-08-01T08:04:44;3.97;;;2.90;;
2784;SDS011;57944;48.722;9.316;2022-08-01T08:07:17;4.37;;;3.40;;
2784;SDS011;57944;48.722;9.316;2022-08-01T08:09:47;4.27;;;2.73;;
2784;SDS011;57944;48.722;9.316;2022-08-01T08:12:17;3.83;;;3.07;;
2784;SDS011;57944;48.722;9.316;2022-08-01T08:14:55;4.90;;;3.70;;
2784;SDS011;57944;48.722;9.316;2022-08-01T08:17:27;4.40;;;3.10;;
2784;SDS011;57944;48.722;9.316;2022-08-01T08:20:02;5.33;;;3.33;;
2784;SDS011;57944;48.722;9.316;2022-08-01T08:22:38;4.40;;;3.40;;
2784;SDS011;57944;48.722;9.316;2022-08-01T08:25:08;6.10;;;3.23;;
2784;SDS011;57944;48.722;9.316;2022-08-01T08:27:39;6.20;;;3.90;;
2784;SDS011;57944;48.722;9.316;2022-08-01T08:30:09;3.83;;;2.90;;
2784;SDS011;57944;48.722;9.316;2022-08-01T08:32:40;5.80;;;3.20;;
2784;SDS011;57944;48.722;9.316;2022-08-01T08:35:10;5.70;;;3.20;;
2784;SDS011;57944;48.722;9.316;2022-08-01T08:37:51;3.60;;;2.80;;
2784;SDS011;57944;48.722;9.316;2022-08-01T08:40:23;4.20;;;3.13;;
2784;SDS011;57944;48.722;9.316;2022-08-01T08:43:00;4.30;;;3.30;;
2784;SDS011;57944;48.722;9.316;2022-08-01T08:45:34;4.60;;;3.33;;
2784;SDS011;57944;48.722;9.316;2022-08-01T08:48:24;4.00;;;2.87;;
2784;SDS011;57944;48.722;9.316;2022-08-01T08:50:55;4.70;;;3.10;;
2784;SDS011;57944;48.722;9.316;2022-08-01T08:53:33;4.80;;;3.33;;
2784;SDS011;57944;48.722;9.316;2022-08-01T08:56:05;4.50;;;3.53;;
2784;SDS011;57944;48.722;9.316;2022-08-01T08:58:37;5.40;;;3.77;;
2784;SDS011;57944;48.722;9.316;2022-08-01T09:01:10;4.80;;;3.80;;
2784;SDS011;57944;48.722;9.316;2022-08-01T09:03:48;4.17;;;3.20;;
2784;SDS011;57944;48.722;9.316;2022-08-01T09:06:18;4.67;;;3.60;;
2784;SDS011;57944;48.722;9.316;2022-08-01T09:08:51;5.00;;;3.53;;
2784;SDS011;57944;48.722;9.316;2022-08-01T09:11:21;4.37;;;3.30;;
2784;SDS011;57944;48.722;9.316;2022-08-01T09:14:01;9.10;;;4.53;;
2784;SDS011;57944;48.722;9.316;2022-08-01T09:16:35;5.80;;;3.70;;
2784;SDS011;57944;48.722;9.316;2022-08-01T09:19:15;4.90;;;3.77;;
2784;SDS011;57944;48.722;9.316;2022-08-01T09:22:07;4.90;;;3.87;;
2784;SDS011;57944;48.722;9.316;2022-08-01T09:24:42;5.97;;;4.80;;
2784;SDS011;57944;48.722;9.316;2022-08-01T09:27:27;5.73;;;4.23;;
2784;SDS011;57944;48.722;9.316;2022-08-01T09:30:07;6.33;;;4.00;;
2784;SDS011;57944;48.722;9.316;2022-08-01T09:32:52;5.30;;;4.37;;
2784;SDS011;57944;48.722;9.316;2022-08-01T09:35:27;6.23;;;3.90;;
2784;SDS011;57944;48.722;9.316;2022-08-01T09:38:11;5.80;;;4.33;;
2784;SDS011;57944;48.722;9.316;2022-08-01T09:40:49;6.57;;;4.20;;
2784;SDS011;57944;48.722;9.316;2022-08-01T09:43:24;8.30;;;5.13;;
2784;SDS011;57944;48.722;9.316;2022-08-01T09:45:57;7.10;;;5.07;;
2784;SDS011;57944;48.722;9.316;2022-08-01T09:48:29;8.63;;;5.00;;
2784;SDS011;57944;48.722;9.316;2022-08-01T09:50:59;8.70;;;5.50;;
2784;SDS011;57944;48.722;9.316;2022-08-01T09:53:42;7.40;;;5.10;;
2784;SDS011;57944;48.722;9.316;2022-08-01T09:56:21;7.40;;;4.80;;
2784;SDS011;57944;48.722;9.316;2022-08-01T09:58:52;7.60;;;6.07;;
2784;SDS011;57944;48.722;9.316;2022-08-01T10:01:28;6.77;;;5.17;;
2784;SDS011;57944;48.722;9.316;2022-08-01T10:04:13;7.43;;;5.30;;
2784;SDS011;57944;48.722;9.316;2022-08-01T10:06:50;7.57;;;4.90;;
2784;SDS011;57944;48.722;9.316;2022-08-01T10:09:26;7.17;;;5.53;;
2784;SDS011;57944;48.722;9.316;2022-08-01T10:12:09;7.50;;;6.37;;
2784;SDS011;57944;48.722;9.316;2022-08-01T10:14:43;6.87;;;5.53;;
2784;SDS011;57944;48.722;9.316;2022-08-01T10:17:17;6.80;;;6.10;;
2784;SDS011;57944;48.722;9.316;2022-08-01T10:19:49;8.83;;;7.13;;
2784;SDS011;57944;48.722;9.316;2022-08-01T10:22:24;9.47;;;6.47;;
2784;SDS011;57944;48.722;9.316;2022-08-01T10:25:02;8.40;;;7.13;;
2784;SDS011;57944;48.722;9.316;2022-08-01T10:27:37;11.20;;;8.43;;
2784;SDS011;57944;48.722;9.316;2022-08-01T10:30:12;10.60;;;7.40;;
2784;SDS011;57944;48.722;9.316;2022-08-01T10:32:49;8.67;;;7.53;;
2784;SDS011;57944;48.722;9.316;2022-08-01T10:35:21;9.43;;;8.47;;
2784;SDS011;57944;48.722;9.316;2022-08-01T10:38:12;8.80;;;6.87;;
2784;SDS011;57944;48.722;9.316;2022-08-01T10:40:43;7.33;;;6.47;;
2784;SDS011;57944;48.722;9.316;2022-08-01T10:43:16;9.60;;;6.77;;
2784;SDS011;57944;48.722;9.316;2022-08-01T10:45:47;8.43;;;7.63;;
2784;SDS011;57944;48.722;9.316;2022-08-01T10:48:22;8.33;;;7.23;;
2784;SDS011;57944;48.722;9.316;2022-08-01T10:51:04;7.67;;;6.87;;
2784;SDS011;57944;48.722;9.316;2022-08-01T10:53:47;8.47;;;7.57;;
2784;SDS011;57944;48.722;9.316;2022-08-01T10:56:22;7.97;;;6.60;;
2784;SDS011;57944;48.722;9.316;2022-08-01T10:59:00;8.20;;;7.40;;
2784;SDS011;57944;48.722;9.316;2022-08-01T11:01:37;11.33;;;6.57;;
2784;SDS011;57944;48.722;9.316;2022-08-01T11:04:11;8.20;;;6.70;;
2784;SDS011;57944;48.722;9.316;2022-08-01T11:06:49;7.73;;;6.83;;
2784;SDS011;57944;48.722;9.316;2022-08-01T11:09:39;8.43;;;7.07;;
2784;SDS011;57944;48.722;9.316;2022-08-01T11:12:17;9.57;;;6.13;;
2784;SDS011;57944;48.722;9.316;2022-08-01T11:18:03;8.87;;;5.63;;
2784;SDS011;57944;48.722;9.316;2022-08-01T11:21:04;8.53;;;5.63;;
2784;SDS011;57944;48.722;9.316;2022-08-01T11:23:54;6.20;;;5.10;;
2784;SDS011;57944;48.722;9.316;2022-08-01T11:26:24;5.77;;;4.50;;
2784;SDS011;57944;48.722;9.316;2022-08-01T11:29:14;6.07;;;4.40;;
2784;SDS011;57944;48.722;9.316;2022-08-01T11:31:51;6.10;;;4.70;;
2784;SDS011;57944;48.722;9.316;2022-08-01T11:37:32;6.53;;;4.73;;
2784;SDS011;57944;48.722;9.316;2022-08-01T11:40:15;7.20;;;5.57;;
2784;SDS011;57944;48.722;9.316;2022-08-01T11:42:50;6.63;;;5.27;;
2784;SDS011;57944;48.722;9.316;2022-08-01T11:45:47;5.83;;;5.23;;
2784;SDS011;57944;48.722;9.316;2022-08-01T11:48:22;6.57;;;5.10;;
2784;SDS011;57944;48.722;9.316;2022-08-01T11:50:55;9.10;;;5.63;;
2784;SDS011;57944;48.722;9.316;2022-08-01T11:53:27;5.40;;;4.43;;
2784;SDS011;57944;48.722;9.316;2022-08-01T11:56:02;6.50;;;4.67;;
2784;SDS011;57944;48.722;9.316;2022-08-01T11:58:32;5.83;;;4.90;;
2784;SDS011;57944;48.722;9.316;2022-08-01T12:01:03;8.73;;;5.10;;
2784;SDS011;57944;48.722;9.316;2022-08-01T12:03:38;6.70;;;5.57;;
2784;SDS011;57944;48.722;9.316;2022-08-01T12:06:11;7.70;;;5.30;;
2784;SDS011;57944;48.722;9.316;2022-08-01T12:08:42;5.80;;;4.50;;
2784;SDS011;57944;48.722;9.316;2022-08-01T12:11:12;9.70;;;5.30;;
2784;SDS011;57944;48.722;9.316;2022-08-01T12:13:43;5.53;;;4.90;;
2784;SDS011;57944;48.722;9.316;2022-08-01T12:16:14;10.93;;;5.03;;
2784;SDS011;57944;48.722;9.316;2022-08-01T12:18:51;6.20;;;4.60;;
2784;SDS011;57944;48.722;9.316;2022-08-01T12:21:21;7.60;;;5.20;;
2784;SDS011;57944;48.722;9.316;2022-08-01T12:23:59;6.77;;;5.30;;
2784;SDS011;57944;48.722;9.316;2022-08-01T12:26:39;8.90;;;4.80;;
2784;SDS011;57944;48.722;9.316;2022-08-01T12:29:10;7.10;;;4.70;;
2784;SDS011;57944;48.722;9.316;2022-08-01T12:32:00;6.90;;;4.07;;
2784;SDS011;57944;48.722;9.316;2022-08-01T12:34:33;5.83;;;5.23;;
2784;SDS011;57944;48.722;9.316;2022-08-01T12:37:04;6.07;;;4.80;;
2784;SDS011;57944;48.722;9.316;2022-08-01T12:39:35;5.47;;;4.20;;
2784;SDS011;57944;48.722;9.316;2022-08-01T12:42:06;5.00;;;4.30;;
2784;SDS011;57944;48.722;9.316;2022-08-01T12:44:37;4.63;;;4.03;;
2784;SDS011;57944;48.722;9.316;2022-08-01T12:47:11;5.07;;;4.43;;
2784;SDS011;57944;48.722;9.316;2022-08-01T12:49:46;5.23;;;3.83;;
2784;SDS011;57944;48.722;9.316;2022-08-01T12:52:17;10.90;;;4.97;;
2784;SDS011;57944;48.722;9.316;2022-08-01T12:55:05;4.53;;;3.90;;
2784;SDS011;57944;48.722;9.316;2022-08-01T12:57:41;5.30;;;4.50;;
2784;SDS011;57944;48.722;9.316;2022-08-01T13:00:18;5.33;;;4.30;;
2784;SDS011;57944;48.722;9.316;2022-08-01T13:03:00;6.57;;;4.90;;
2784;SDS011;57944;48.722;9.316;2022-08-01T13:05:44;5.90;;;4.70;;
2784;SDS011;57944;48.722;9.316;2022-08-01T13:08:18;6.97;;;4.37;;
2784;SDS011;57944;48.722;9.316;2022-08-01T13:10:50;4.90;;;4.33;;
2784;SDS011;57944;48.722;9.316;2022-08-01T13:13:37;6.80;;;4.13;;
2784;SDS011;57944;48.722;9.316;2022-08-01T13:16:09;7.30;;;4.80;;
2784;SDS011;57944;48.722;9.316;2022-08-01T13:18:55;8.47;;;4.60;;
2784;SDS011;57944;48.722;9.316;2022-08-01T13:21:30;5.73;;;4.30;;
2784;SDS011;57944;48.722;9.316;2022-08-01T13:24:23;7.20;;;4.43;;
2784;SDS011;57944;48.722;9.316;2022-08-01T13:26:56;4.10;;;3.40;;
2784;SDS011;57944;48.722;9.316;2022-08-01T13:29:31;5.03;;;3.90;;
2784;SDS011;57944;48.722;9.316;2022-08-01T13:32:13;5.10;;;4.20;;
2784;SDS011;57944;48.722;9.316;2022-08-01T13:35:00;6.77;;;4.10;;
2784;SDS011;57944;48.722;9.316;2022-08-01T13:37:34;4.80;;;3.83;;
2784;SDS011;57944;48.722;9.316;2022-08-01T13:40:06;5.00;;;3.83;;
2784;SDS011;57944;48.722;9.316;2022-08-01T13:42:39;4.83;;;4.17;;
2784;SDS011;57944;48.722;9.316;2022-08-01T13:45:09;7.00;;;4.93;;
2784;SDS011;57944;48.722;9.316;2022-08-01T13:47:40;7.10;;;4.60;;
2784;SDS011;57944;48.722;9.316;2022-08-01T13:50:30;4.50;;;3.67;;
2784;SDS011;57944;48.722;9.316;2022-08-01T13:53:03;7.80;;;4.60;;
2784;SDS011;57944;48.722;9.316;2022-08-01T13:55:33;8.70;;;3.90;;
2784;SDS011;57944;48.722;9.316;2022-08-01T13:58:04;6.90;;;4.13;;
2784;SDS011;57944;48.722;9.316;2022-08-01T14:00:34;10.67;;;3.63;;
2784;SDS011;57944;48.722;9.316;2022-08-01T14:03:04;5.37;;;4.43;;
2784;SDS011;57944;48.722;9.316;2022-08-01T14:05:35;7.23;;;3.70;;
2784;SDS011;57944;48.722;9.316;2022-08-01T14:08:08;5.00;;;3.80;;
2784;SDS011;57944;48.722;9.316;2022-08-01T14:10:39;6.73;;;3.93;;
2784;SDS011;57944;48.722;9.316;2022-08-01T14:13:10;6.07;;;4.00;;
2784;SDS011;57944;48.722;9.316;2022-08-01T14:15:40;6.50;;;3.70;;
2784;SDS011;57944;48.722;9.316;2022-08-01T14:18:10;5.60;;;4.20;;
2784;SDS011;57944;48.722;9.316;2022-08-01T14:20:41;6.67;;;3.40;;
2784;SDS011;57944;48.722;9.316;2022-08-01T14:23:17;4.87;;;3.60;;
2784;SDS011;57944;48.722;9.316;2022-08-01T14:25:47;6.20;;;3.73;;
2784;SDS011;57944;48.722;9.316;2022-08-01T14:28:31;5.57;;;4.13;;
2784;SDS011;57944;48.722;9.316;2022-08-01T14:31:01;5.47;;;3.70;;
2784;SDS011;57944;48.722;9.316;2022-08-01T14:33:32;5.83;;;3.57;;
2784;SDS011;57944;48.722;9.316;2022-08-01T14:36:03;5.30;;;3.33;;
2784;SDS011;57944;48.722;9.316;2022-08-01T14:38:56;4.60;;;3.50;;
2784;SDS011;57944;48.722;9.316;2022-08-01T14:41:27;4.23;;;3.03;;
2784;SDS011;57944;48.722;9.316;2022-08-01T14:43:57;6.30;;;3.27;;
2784;SDS011;57944;48.722;9.316;2022-08-01T14:46:28;6.73;;;4.10;;
2784;SDS011;57944;48.722;9.316;2022-08-01T14:48:59;8.70;;;3.60;;
2784;SDS011;57944;48.722;9.316;2022-08-01T14:51:29;4.10;;;3.03;;
2784;SDS011;57944;48.722;9.316;2022-08-01T14:54:06;6.43;;;3.57;;
2784;SDS011;57944;48.722;9.316;2022-08-01T14:56:36;5.57;;;3.27;;
2784;SDS011;57944;48.722;9.316;2022-08-01T14:59:06;5.50;;;3.90;;
2784;SDS011;57944;48.722;9.316;2022-08-01T15:01:47;5.80;;;3.40;;
2784;SDS011;57944;48.722;9.316;2022-08-01T15:04:17;4.30;;;3.50;;
2784;SDS011;57944;48.722;9.316;2022-08-01T15:06:47;5.60;;;3.73;;
2784;SDS011;57944;48.722;9.316;2022-08-01T15:09:19;6.77;;;3.30;;
2784;SDS011;57944;48.722;9.316;2022-08-01T15:11:49;4.87;;;3.83;;
2784;SDS011;57944;48.722;9.316;2022-08-01T15:14:19;11.73;;;3.47;;
2784;SDS011;57944;48.722;9.316;2022-08-01T15:17:02;4.37;;;2.57;;
2784;SDS011;57944;48.722;9.316;2022-08-01T15:19:34;5.70;;;3.33;;
2784;SDS011;57944;48.722;9.316;2022-08-01T15:22:08;4.80;;;3.50;;
2784;SDS011;57944;48.722;9.316;2022-08-01T15:24:41;10.20;;;4.10;;
2784;SDS011;57944;48.722;9.316;2022-08-01T15:27:12;5.03;;;3.57;;
2784;SDS011;57944;48.722;9.316;2022-08-01T15:29:42;6.47;;;3.67;;
2784;SDS011;57944;48.722;9.316;2022-08-01T15:32:12;3.63;;;2.93;;
2784;SDS011;57944;48.722;9.316;2022-08-01T15:34:43;6.77;;;3.60;;
2784;SDS011;57944;48.722;9.316;2022-08-01T15:37:14;5.97;;;3.57;;
2784;SDS011;57944;48.722;9.316;2022-08-01T15:39:47;5.20;;;3.10;;
2784;SDS011;57944;48.722;9.316;2022-08-01T15:42:22;7.07;;;3.37;;
2784;SDS011;57944;48.722;9.316;2022-08-01T15:44:52;4.90;;;3.50;;
2784;SDS011;57944;48.722;9.316;2022-08-01T15:47:22;4.40;;;3.40;;
2784;SDS011;57944;48.722;9.316;2022-08-01T15:49:53;4.40;;;3.00;;
2784;SDS011;57944;48.722;9.316;2022-08-01T15:52:25;5.30;;;3.37;;